sensor_id;sensor_type;location;lat;lon;timestamp;P1;durP1;ratioP1;P2;durP2;ratioP2
14015;SDS011;7083;48.854;9.158;2022-12-10T00:01:59;845.93;;;795.00;;
14015;SDS011;7083;48.854;9.158;2022-12-10T00:04:27;944.93;;;885.27;;
14015;SDS011;7083;48.854;9.158;2022-12-10T00:06:53;947.30;;;887.07;;
14015;SDS011;7083;48.854;9.158;2022-12-10T00:09:20;962.80;;;901.23;;
14015;SDS011;7083;48.854;9.158;2022-12-10T00:11:47;946.03;;;886.27;;
14015;SDS011;7083;48.854;9.158;2022-12-10T00:14:15;942.53;;;883.10;;
14015;SDS011;7083;48.854;9.158;2022-12-10T00:16:41;958.33;;;897.03;;
14015;SDS011;7083;48.854;9.158;2022-12-10T00:19:09;963.93;;;902.63;;
14015;SDS011;7083;48.854;9.158;2022-12-10T00:21:37;953.97;;;893.50;;
14015;SDS011;7083;48.854;9.158;2022-12-10T00:24:04;961.27;;;899.70;;
14015;SDS011;7083;48.854;9.158;2022-12-10T00:26:32;980.30;;;917.17;;
14015;SDS011;7083;48.854;9.158;2022-12-10T00:29:01;987.80;;;923.60;;
14015;SDS011;7083;48.854;9.158;2022-12-10T00:31:30;970.40;;;908.27;;
14015;SDS011;7083;48.854;9.158;2022-12-10T00:33:58;973.43;;;910.50;;
14015;SDS011;7083;48.854;9.158;2022-12-10T00:36:27;978.67;;;915.70;;
14015;SDS011;7083;48.854;9.158;2022-12-10T00:38:56;967.37;;;905.33;;
14015;SDS011;7083;48.854;9.158;2022-12-10T00:41:24;991.03;;;926.20;;
14015;SDS011;7083;48.854;9.158;2022-12-10T00:43:51;1000.50;;;934.30;;
14015;SDS011;7083;48.854;9.158;2022-12-10T00:46:18;1006.93;;;940.10;;
14015;SDS011;7083;48.854;9.158;2022-12-10T00:48:45;998.93;;;933.23;;
14015;SDS011;7083;48.854;9.158;2022-12-10T00:51:13;974.93;;;912.07;;
14015;SDS011;7083;48.854;9.158;2022-12-10T00:53:41;973.17;;;910.30;;
14015;SDS011;7083;48.854;9.158;2022-12-10T00:56:10;980.80;;;917.30;;
14015;SDS011;7083;48.854;9.158;2022-12-10T00:58:38;991.63;;;926.23;;
14015;SDS011;7083;48.854;9.158;2022-12-10T01:01:06;996.00;;;930.67;;
14015;SDS011;7083;48.854;9.158;2022-12-10T01:03:34;1010.67;;;943.30;;
14015;SDS011;7083;48.854;9.158;2022-12-10T01:06:11;1001.40;;;935.40;;
14015;SDS011;7083;48.854;9.158;2022-12-10T01:08:40;1020.33;;;952.67;;
14015;SDS011;7083;48.854;9.158;2022-12-10T01:11:08;1015.67;;;947.77;;
14015;SDS011;7083;48.854;9.158;2022-12-10T01:13:37;1009.40;;;942.33;;
14015;SDS011;7083;48.854;9.158;2022-12-10T01:16:05;1000.87;;;934.93;;
14015;SDS011;7083;48.854;9.158;2022-12-10T01:18:34;881.17;;;827.23;;
14015;SDS011;7083;48.854;9.158;2022-12-10T01:21:01;975.17;;;912.13;;
14015;SDS011;7083;48.854;9.158;2022-12-10T01:23:30;980.20;;;916.90;;
14015;SDS011;7083;48.854;9.158;2022-12-10T01:25:59;993.20;;;927.77;;
14015;SDS011;7083;48.854;9.158;2022-12-10T01:28:29;1005.23;;;938.87;;
14015;SDS011;7083;48.854;9.158;2022-12-10T01:31:00;994.67;;;929.30;;
14015;SDS011;7083;48.854;9.158;2022-12-10T01:33:27;993.97;;;928.30;;
14015;SDS011;7083;48.854;9.158;2022-12-10T01:35:54;865.27;;;812.67;;
14015;SDS011;7083;48.854;9.158;2022-12-10T01:38:21;969.30;;;907.10;;
14015;SDS011;7083;48.854;9.158;2022-12-10T01:40:48;914.63;;;858.33;;
14015;SDS011;7083;48.854;9.158;2022-12-10T01:43:15;941.50;;;881.93;;
14015;SDS011;7083;48.854;9.158;2022-12-10T01:45:43;955.67;;;894.43;;
14015;SDS011;7083;48.854;9.158;2022-12-10T01:48:09;971.57;;;908.87;;
14015;SDS011;7083;48.854;9.158;2022-12-10T01:50:37;973.57;;;910.63;;
14015;SDS011;7083;48.854;9.158;2022-12-10T01:53:04;972.63;;;909.47;;
14015;SDS011;7083;48.854;9.158;2022-12-10T01:55:37;963.67;;;901.77;;
14015;SDS011;7083;48.854;9.158;2022-12-10T01:58:10;972.60;;;909.90;;
14015;SDS011;7083;48.854;9.158;2022-12-10T02:00:40;880.47;;;827.13;;
14015;SDS011;7083;48.854;9.158;2022-12-10T02:03:14;935.10;;;876.50;;
14015;SDS011;7083;48.854;9.158;2022-12-10T02:05:47;969.20;;;906.53;;
14015;SDS011;7083;48.854;9.158;2022-12-10T02:08:19;976.63;;;913.23;;
14015;SDS011;7083;48.854;9.158;2022-12-10T02:10:55;964.10;;;902.00;;
14015;SDS011;7083;48.854;9.158;2022-12-10T02:13:39;976.20;;;913.07;;
14015;SDS011;7083;48.854;9.158;2022-12-10T02:16:10;965.30;;;903.10;;
14015;SDS011;7083;48.854;9.158;2022-12-10T02:18:41;967.90;;;906.33;;
14015;SDS011;7083;48.854;9.158;2022-12-10T02:21:17;956.23;;;895.20;;
14015;SDS011;7083;48.854;9.158;2022-12-10T02:23:49;975.33;;;912.73;;
14015;SDS011;7083;48.854;9.158;2022-12-10T02:26:22;969.63;;;907.47;;
14015;SDS011;7083;48.854;9.158;2022-12-10T02:29:01;971.73;;;909.93;;
14015;SDS011;7083;48.854;9.158;2022-12-10T02:31:33;990.67;;;926.23;;
14015;SDS011;7083;48.854;9.158;2022-12-10T02:34:01;989.07;;;924.10;;
14015;SDS011;7083;48.854;9.158;2022-12-10T02:36:31;970.80;;;908.43;;
14015;SDS011;7083;48.854;9.158;2022-12-10T02:39:02;908.57;;;852.37;;
14015;SDS011;7083;48.854;9.158;2022-12-10T02:41:33;986.53;;;922.77;;
14015;SDS011;7083;48.854;9.158;2022-12-10T02:44:02;993.47;;;928.60;;
14015;SDS011;7083;48.854;9.158;2022-12-10T02:46:33;979.17;;;915.43;;
14015;SDS011;7083;48.854;9.158;2022-12-10T02:49:03;983.57;;;919.27;;
14015;SDS011;7083;48.854;9.158;2022-12-10T02:51:32;976.20;;;913.30;;
14015;SDS011;7083;48.854;9.158;2022-12-10T02:53:59;1005.60;;;938.70;;
14015;SDS011;7083;48.854;9.158;2022-12-10T02:56:28;1009.33;;;942.77;;
14015;SDS011;7083;48.854;9.158;2022-12-10T02:59:01;977.33;;;913.83;;
14015;SDS011;7083;48.854;9.158;2022-12-10T03:01:42;990.43;;;926.03;;
14015;SDS011;7083;48.854;9.158;2022-12-10T03:04:16;1024.73;;;956.20;;
14015;SDS011;7083;48.854;9.158;2022-12-10T03:06:50;1008.60;;;941.30;;
14015;SDS011;7083;48.854;9.158;2022-12-10T03:09:19;1026.93;;;957.53;;
14015;SDS011;7083;48.854;9.158;2022-12-10T03:11:49;1026.20;;;957.07;;
14015;SDS011;7083;48.854;9.158;2022-12-10T03:14:25;1039.80;;;967.90;;
14015;SDS011;7083;48.854;9.158;2022-12-10T03:16:55;1066.77;;;991.97;;
14015;SDS011;7083;48.854;9.158;2022-12-10T03:19:24;1046.00;;;974.13;;
14015;SDS011;7083;48.854;9.158;2022-12-10T03:21:56;1026.80;;;956.60;;
14015;SDS011;7083;48.854;9.158;2022-12-10T03:24:26;1034.03;;;963.33;;
14015;SDS011;7083;48.854;9.158;2022-12-10T03:26:53;1028.73;;;959.10;;
14015;SDS011;7083;48.854;9.158;2022-12-10T03:29:26;1020.63;;;952.53;;
14015;SDS011;7083;48.854;9.158;2022-12-10T03:31:56;995.77;;;930.43;;
14015;SDS011;7083;48.854;9.158;2022-12-10T03:34:26;995.10;;;930.10;;
14015;SDS011;7083;48.854;9.158;2022-12-10T03:36:54;981.10;;;917.47;;
14015;SDS011;7083;48.854;9.158;2022-12-10T03:39:21;983.93;;;920.27;;
14015;SDS011;7083;48.854;9.158;2022-12-10T03:41:50;954.77;;;894.37;;
14015;SDS011;7083;48.854;9.158;2022-12-10T03:44:27;955.63;;;894.50;;
14015;SDS011;7083;48.854;9.158;2022-12-10T03:46:54;949.03;;;889.27;;
14015;SDS011;7083;48.854;9.158;2022-12-10T03:49:21;975.60;;;912.80;;
14015;SDS011;7083;48.854;9.158;2022-12-10T03:51:48;973.60;;;910.73;;
14015;SDS011;7083;48.854;9.158;2022-12-10T03:54:15;966.63;;;904.57;;
14015;SDS011;7083;48.854;9.158;2022-12-10T03:56:42;982.60;;;919.30;;
14015;SDS011;7083;48.854;9.158;2022-12-10T03:59:09;960.70;;;899.37;;
14015;SDS011;7083;48.854;9.158;2022-12-10T04:01:37;968.33;;;906.00;;
14015;SDS011;7083;48.854;9.158;2022-12-10T04:04:04;855.27;;;803.37;;
14015;SDS011;7083;48.854;9.158;2022-12-10T04:06:32;956.43;;;895.60;;
14015;SDS011;7083;48.854;9.158;2022-12-10T04:09:01;828.67;;;778.93;;
14015;SDS011;7083;48.854;9.158;2022-12-10T04:11:28;966.03;;;904.03;;
14015;SDS011;7083;48.854;9.158;2022-12-10T04:13:55;939.77;;;880.93;;
14015;SDS011;7083;48.854;9.158;2022-12-10T04:16:41;986.83;;;922.93;;
14015;SDS011;7083;48.854;9.158;2022-12-10T04:19:08;1000.90;;;934.93;;
14015;SDS011;7083;48.854;9.158;2022-12-10T04:21:38;1013.60;;;946.27;;
14015;SDS011;7083;48.854;9.158;2022-12-10T04:24:23;1016.70;;;948.90;;
14015;SDS011;7083;48.854;9.158;2022-12-10T04:27:09;1028.20;;;959.43;;
14015;SDS011;7083;48.854;9.158;2022-12-10T04:29:38;1002.50;;;937.10;;
14015;SDS011;7083;48.854;9.158;2022-12-10T04:32:07;987.53;;;923.83;;
14015;SDS011;7083;48.854;9.158;2022-12-10T04:34:34;1020.07;;;951.97;;
14015;SDS011;7083;48.854;9.158;2022-12-10T04:37:01;1006.37;;;939.80;;
14015;SDS011;7083;48.854;9.158;2022-12-10T04:39:31;1014.37;;;946.23;;
14015;SDS011;7083;48.854;9.158;2022-12-10T04:41:58;1030.30;;;960.60;;
14015;SDS011;7083;48.854;9.158;2022-12-10T04:44:26;1034.10;;;964.23;;
14015;SDS011;7083;48.854;9.158;2022-12-10T04:46:53;1023.50;;;955.27;;
14015;SDS011;7083;48.854;9.158;2022-12-10T04:49:21;1018.03;;;950.17;;
14015;SDS011;7083;48.854;9.158;2022-12-10T04:51:48;1008.43;;;941.40;;
14015;SDS011;7083;48.854;9.158;2022-12-10T04:54:15;871.13;;;817.80;;
14015;SDS011;7083;48.854;9.158;2022-12-10T04:56:42;894.17;;;839.03;;
14015;SDS011;7083;48.854;9.158;2022-12-10T04:59:09;965.47;;;903.60;;
14015;SDS011;7083;48.854;9.158;2022-12-10T05:01:36;1001.47;;;935.37;;
14015;SDS011;7083;48.854;9.158;2022-12-10T05:04:04;997.30;;;931.57;;
14015;SDS011;7083;48.854;9.158;2022-12-10T05:06:34;1019.97;;;951.27;;
14015;SDS011;7083;48.854;9.158;2022-12-10T05:09:01;1014.43;;;946.90;;
14015;SDS011;7083;48.854;9.158;2022-12-10T05:11:30;1024.30;;;955.53;;
14015;SDS011;7083;48.854;9.158;2022-12-10T05:13:58;942.77;;;883.13;;
14015;SDS011;7083;48.854;9.158;2022-12-10T05:16:25;1020.13;;;952.07;;
14015;SDS011;7083;48.854;9.158;2022-12-10T05:18:54;1032.93;;;963.57;;
14015;SDS011;7083;48.854;9.158;2022-12-10T05:21:21;922.87;;;864.97;;
14015;SDS011;7083;48.854;9.158;2022-12-10T05:23:51;1009.07;;;942.60;;
14015;SDS011;7083;48.854;9.158;2022-12-10T05:26:18;982.23;;;918.37;;
14015;SDS011;7083;48.854;9.158;2022-12-10T05:28:47;1029.07;;;959.20;;
14015;SDS011;7083;48.854;9.158;2022-12-10T05:31:15;1015.60;;;947.90;;
14015;SDS011;7083;48.854;9.158;2022-12-10T05:33:43;1022.97;;;954.23;;
14015;SDS011;7083;48.854;9.158;2022-12-10T05:36:11;1029.77;;;960.20;;
14015;SDS011;7083;48.854;9.158;2022-12-10T05:38:40;1050.73;;;978.80;;
14015;SDS011;7083;48.854;9.158;2022-12-10T05:41:09;940.57;;;881.20;;
14015;SDS011;7083;48.854;9.158;2022-12-10T05:43:38;1001.87;;;936.50;;
14015;SDS011;7083;48.854;9.158;2022-12-10T05:46:06;1004.47;;;937.63;;
14015;SDS011;7083;48.854;9.158;2022-12-10T05:48:35;1027.83;;;958.90;;
14015;SDS011;7083;48.854;9.158;2022-12-10T05:51:03;1029.83;;;960.40;;
14015;SDS011;7083;48.854;9.158;2022-12-10T05:53:30;973.60;;;910.37;;
14015;SDS011;7083;48.854;9.158;2022-12-10T05:56:01;1028.30;;;959.50;;
14015;SDS011;7083;48.854;9.158;2022-12-10T05:58:31;1024.77;;;955.17;;
14015;SDS011;7083;48.854;9.158;2022-12-10T06:00:59;1018.97;;;950.80;;
14015;SDS011;7083;48.854;9.158;2022-12-10T06:03:26;1020.13;;;951.70;;
14015;SDS011;7083;48.854;9.158;2022-12-10T06:05:53;1009.63;;;942.57;;
14015;SDS011;7083;48.854;9.158;2022-12-10T06:08:20;903.93;;;847.67;;
14015;SDS011;7083;48.854;9.158;2022-12-10T06:10:47;987.97;;;924.03;;
14015;SDS011;7083;48.854;9.158;2022-12-10T06:13:14;988.33;;;924.23;;
14015;SDS011;7083;48.854;9.158;2022-12-10T06:15:42;1014.77;;;947.30;;
14015;SDS011;7083;48.854;9.158;2022-12-10T06:18:09;998.40;;;932.77;;
14015;SDS011;7083;48.854;9.158;2022-12-10T06:20:37;885.17;;;830.77;;
14015;SDS011;7083;48.854;9.158;2022-12-10T06:23:07;983.77;;;919.60;;
14015;SDS011;7083;48.854;9.158;2022-12-10T06:25:37;992.23;;;927.30;;
14015;SDS011;7083;48.854;9.158;2022-12-10T06:28:04;1000.13;;;933.93;;
14015;SDS011;7083;48.854;9.158;2022-12-10T06:30:31;997.13;;;931.97;;
14015;SDS011;7083;48.854;9.158;2022-12-10T06:32:59;1013.83;;;946.57;;
14015;SDS011;7083;48.854;9.158;2022-12-10T06:35:26;1029.43;;;959.70;;
14015;SDS011;7083;48.854;9.158;2022-12-10T06:37:53;1012.27;;;945.00;;
14015;SDS011;7083;48.854;9.158;2022-12-10T06:40:19;1029.10;;;959.37;;
14015;SDS011;7083;48.854;9.158;2022-12-10T06:42:46;1024.77;;;955.97;;
14015;SDS011;7083;48.854;9.158;2022-12-10T06:45:13;1039.97;;;969.63;;
14015;SDS011;7083;48.854;9.158;2022-12-10T06:47:40;1040.30;;;970.00;;
14015;SDS011;7083;48.854;9.158;2022-12-10T06:50:08;1036.43;;;966.03;;
14015;SDS011;7083;48.854;9.158;2022-12-10T06:52:35;1015.70;;;947.73;;
14015;SDS011;7083;48.854;9.158;2022-12-10T06:55:02;1016.30;;;949.00;;
14015;SDS011;7083;48.854;9.158;2022-12-10T06:57:29;1019.40;;;950.93;;
14015;SDS011;7083;48.854;9.158;2022-12-10T06:59:56;1028.93;;;959.63;;
14015;SDS011;7083;48.854;9.158;2022-12-10T07:02:22;1029.50;;;960.53;;
14015;SDS011;7083;48.854;9.158;2022-12-10T07:04:49;1037.93;;;967.73;;
14015;SDS011;7083;48.854;9.158;2022-12-10T07:07:17;1016.50;;;948.83;;
14015;SDS011;7083;48.854;9.158;2022-12-10T07:09:44;1022.83;;;954.83;;
14015;SDS011;7083;48.854;9.158;2022-12-10T07:12:10;1006.60;;;940.23;;
14015;SDS011;7083;48.854;9.158;2022-12-10T07:14:37;1015.20;;;947.73;;
14015;SDS011;7083;48.854;9.158;2022-12-10T07:17:04;973.33;;;910.80;;
14015;SDS011;7083;48.854;9.158;2022-12-10T07:19:31;939.70;;;880.63;;
14015;SDS011;7083;48.854;9.158;2022-12-10T07:21:58;979.60;;;916.07;;
14015;SDS011;7083;48.854;9.158;2022-12-10T07:24:26;1013.70;;;946.13;;
14015;SDS011;7083;48.854;9.158;2022-12-10T07:26:53;995.67;;;930.67;;
14015;SDS011;7083;48.854;9.158;2022-12-10T07:29:20;998.73;;;933.10;;
14015;SDS011;7083;48.854;9.158;2022-12-10T07:31:47;992.40;;;927.30;;
14015;SDS011;7083;48.854;9.158;2022-12-10T07:34:15;1017.20;;;949.70;;
14015;SDS011;7083;48.854;9.158;2022-12-10T07:36:42;936.93;;;877.63;;
14015;SDS011;7083;48.854;9.158;2022-12-10T07:39:09;884.63;;;829.90;;
14015;SDS011;7083;48.854;9.158;2022-12-10T07:41:43;985.80;;;921.00;;
14015;SDS011;7083;48.854;9.158;2022-12-10T07:44:11;1002.00;;;935.57;;
14015;SDS011;7083;48.854;9.158;2022-12-10T07:46:38;1004.43;;;938.23;;
14015;SDS011;7083;48.854;9.158;2022-12-10T07:49:05;950.93;;;890.17;;
14015;SDS011;7083;48.854;9.158;2022-12-10T07:51:33;1011.47;;;944.00;;
14015;SDS011;7083;48.854;9.158;2022-12-10T07:54:02;1027.77;;;959.30;;
14015;SDS011;7083;48.854;9.158;2022-12-10T07:56:31;986.83;;;923.23;;
14015;SDS011;7083;48.854;9.158;2022-12-10T07:58:59;579.85;;;552.33;;
14015;SDS011;7083;48.854;9.158;2022-12-10T08:01:26;888.83;;;834.33;;
14015;SDS011;7083;48.854;9.158;2022-12-10T08:03:53;961.10;;;900.07;;
14015;SDS011;7083;48.854;9.158;2022-12-10T08:06:24;1007.93;;;941.13;;
14015;SDS011;7083;48.854;9.158;2022-12-10T08:08:52;1011.20;;;943.40;;
14015;SDS011;7083;48.854;9.158;2022-12-10T08:11:20;994.77;;;928.80;;
14015;SDS011;7083;48.854;9.158;2022-12-10T08:13:47;1004.33;;;938.43;;
14015;SDS011;7083;48.854;9.158;2022-12-10T08:16:16;999.63;;;934.23;;
14015;SDS011;7083;48.854;9.158;2022-12-10T08:18:45;1035.00;;;964.37;;
14015;SDS011;7083;48.854;9.158;2022-12-10T08:21:12;1017.43;;;949.77;;
14015;SDS011;7083;48.854;9.158;2022-12-10T08:23:47;1037.60;;;967.20;;
14015;SDS011;7083;48.854;9.158;2022-12-10T08:26:14;1052.13;;;979.30;;
14015;SDS011;7083;48.854;9.158;2022-12-10T08:28:43;1053.27;;;980.47;;
14015;SDS011;7083;48.854;9.158;2022-12-10T08:31:10;965.47;;;903.27;;
14015;SDS011;7083;48.854;9.158;2022-12-10T08:33:39;1034.20;;;964.10;;
14015;SDS011;7083;48.854;9.158;2022-12-10T08:36:07;1026.10;;;956.90;;
14015;SDS011;7083;48.854;9.158;2022-12-10T08:38:36;1025.63;;;956.67;;
14015;SDS011;7083;48.854;9.158;2022-12-10T08:41:06;979.97;;;915.77;;
14015;SDS011;7083;48.854;9.158;2022-12-10T08:43:34;1022.23;;;953.97;;
14015;SDS011;7083;48.854;9.158;2022-12-10T08:46:03;1003.03;;;936.00;;
14015;SDS011;7083;48.854;9.158;2022-12-10T08:48:33;1096.37;;;999.90;;
14015;SDS011;7083;48.854;9.158;2022-12-10T08:51:02;1093.90;;;999.90;;
14015;SDS011;7083;48.854;9.158;2022-12-10T08:53:31;1087.17;;;999.90;;
14015;SDS011;7083;48.854;9.158;2022-12-10T08:55:58;1090.13;;;999.90;;
14015;SDS011;7083;48.854;9.158;2022-12-10T08:58:28;1000.23;;;933.20;;
14015;SDS011;7083;48.854;9.158;2022-12-10T09:01:05;1090.93;;;999.90;;
14015;SDS011;7083;48.854;9.158;2022-12-10T09:03:33;1074.93;;;998.67;;
14015;SDS011;7083;48.854;9.158;2022-12-10T09:06:03;1086.83;;;999.90;;
14015;SDS011;7083;48.854;9.158;2022-12-10T09:08:31;1097.57;;;999.90;;
14015;SDS011;7083;48.854;9.158;2022-12-10T09:10:58;1107.53;;;999.90;;
14015;SDS011;7083;48.854;9.158;2022-12-10T09:13:31;1150.73;;;999.90;;
14015;SDS011;7083;48.854;9.158;2022-12-10T09:15:58;1081.73;;;999.90;;
14015;SDS011;7083;48.854;9.158;2022-12-10T09:18:25;1129.17;;;999.90;;
14015;SDS011;7083;48.854;9.158;2022-12-10T09:20:52;1100.90;;;999.90;;
14015;SDS011;7083;48.854;9.158;2022-12-10T09:23:20;1118.00;;;999.90;;
14015;SDS011;7083;48.854;9.158;2022-12-10T09:25:47;1133.27;;;999.90;;
14015;SDS011;7083;48.854;9.158;2022-12-10T09:28:14;1129.10;;;999.90;;
14015;SDS011;7083;48.854;9.158;2022-12-10T09:30:41;1134.20;;;999.90;;
14015;SDS011;7083;48.854;9.158;2022-12-10T09:33:07;1150.93;;;999.90;;
14015;SDS011;7083;48.854;9.158;2022-12-10T09:35:34;1131.60;;;999.90;;
14015;SDS011;7083;48.854;9.158;2022-12-10T09:38:06;1180.70;;;999.90;;
14015;SDS011;7083;48.854;9.158;2022-12-10T09:40:36;1653.60;;;961.37;;
14015;SDS011;7083;48.854;9.158;2022-12-10T09:43:10;1602.87;;;913.90;;
14015;SDS011;7083;48.854;9.158;2022-12-10T09:45:47;1999.90;;;999.90;;
14015;SDS011;7083;48.854;9.158;2022-12-10T09:48:25;1999.90;;;999.90;;
14015;SDS011;7083;48.854;9.158;2022-12-10T09:51:01;1999.90;;;999.90;;
14015;SDS011;7083;48.854;9.158;2022-12-10T09:53:32;1999.90;;;999.90;;
14015;SDS011;7083;48.854;9.158;2022-12-10T09:56:03;1999.90;;;999.90;;
14015;SDS011;7083;48.854;9.158;2022-12-10T09:58:31;1999.90;;;999.90;;
14015;SDS011;7083;48.854;9.158;2022-12-10T10:01:00;1999.90;;;999.90;;
14015;SDS011;7083;48.854;9.158;2022-12-10T10:03:31;1999.90;;;999.90;;
14015;SDS011;7083;48.854;9.158;2022-12-10T10:06:01;1999.90;;;999.90;;
14015;SDS011;7083;48.854;9.158;2022-12-10T10:08:31;1999.90;;;999.90;;
14015;SDS011;7083;48.854;9.158;2022-12-10T10:11:00;1999.90;;;999.90;;
14015;SDS011;7083;48.854;9.158;2022-12-10T10:13:30;1999.90;;;999.90;;
14015;SDS011;7083;48.854;9.158;2022-12-10T10:16:01;1999.90;;;999.90;;
14015;SDS011;7083;48.854;9.158;2022-12-10T10:18:43;1999.90;;;999.90;;
14015;SDS011;7083;48.854;9.158;2022-12-10T10:21:15;1999.90;;;999.90;;
14015;SDS011;7083;48.854;9.158;2022-12-10T10:23:46;1999.90;;;999.90;;
14015;SDS011;7083;48.854;9.158;2022-12-10T10:26:14;1999.90;;;999.90;;
14015;SDS011;7083;48.854;9.158;2022-12-10T10:28:42;1999.90;;;999.90;;
14015;SDS011;7083;48.854;9.158;2022-12-10T10:31:12;1999.90;;;999.90;;
14015;SDS011;7083;48.854;9.158;2022-12-10T10:33:48;1999.90;;;999.90;;
14015;SDS011;7083;48.854;9.158;2022-12-10T10:36:22;1999.90;;;999.90;;
14015;SDS011;7083;48.854;9.158;2022-12-10T10:38:49;1999.90;;;999.90;;
14015;SDS011;7083;48.854;9.158;2022-12-10T10:41:16;1999.90;;;999.90;;
14015;SDS011;7083;48.854;9.158;2022-12-10T10:43:44;1999.90;;;999.90;;
14015;SDS011;7083;48.854;9.158;2022-12-10T10:46:13;1999.90;;;999.90;;
14015;SDS011;7083;48.854;9.158;2022-12-10T10:48:42;1999.90;;;999.90;;
14015;SDS011;7083;48.854;9.158;2022-12-10T10:51:15;1999.90;;;999.90;;
14015;SDS011;7083;48.854;9.158;2022-12-10T10:53:46;1999.90;;;999.90;;
14015;SDS011;7083;48.854;9.158;2022-12-10T10:56:15;1999.90;;;999.90;;
14015;SDS011;7083;48.854;9.158;2022-12-10T10:58:50;1999.90;;;999.90;;
14015;SDS011;7083;48.854;9.158;2022-12-10T11:01:21;1999.90;;;999.90;;
14015;SDS011;7083;48.854;9.158;2022-12-10T11:03:51;1999.90;;;999.90;;
14015;SDS011;7083;48.854;9.158;2022-12-10T11:06:21;1999.90;;;999.90;;
14015;SDS011;7083;48.854;9.158;2022-12-10T11:08:48;1999.90;;;999.90;;
14015;SDS011;7083;48.854;9.158;2022-12-10T11:11:18;1999.90;;;999.90;;
14015;SDS011;7083;48.854;9.158;2022-12-10T11:13:49;1999.90;;;999.90;;
14015;SDS011;7083;48.854;9.158;2022-12-10T11:16:17;1999.90;;;999.90;;
14015;SDS011;7083;48.854;9.158;2022-12-10T11:18:51;1999.90;;;999.90;;
14015;SDS011;7083;48.854;9.158;2022-12-10T11:21:22;1999.90;;;999.90;;
14015;SDS011;7083;48.854;9.158;2022-12-10T11:23:51;1999.90;;;999.90;;
14015;SDS011;7083;48.854;9.158;2022-12-10T11:26:24;1999.90;;;999.90;;
14015;SDS011;7083;48.854;9.158;2022-12-10T11:29:08;1999.90;;;999.90;;
14015;SDS011;7083;48.854;9.158;2022-12-10T11:31:46;1999.90;;;999.90;;
14015;SDS011;7083;48.854;9.158;2022-12-10T11:34:25;1999.90;;;999.90;;
14015;SDS011;7083;48.854;9.158;2022-12-10T11:37:03;1999.90;;;999.90;;
14015;SDS011;7083;48.854;9.158;2022-12-10T11:39:44;1999.90;;;999.90;;
14015;SDS011;7083;48.854;9.158;2022-12-10T11:42:30;1999.90;;;999.90;;
14015;SDS011;7083;48.854;9.158;2022-12-10T11:45:12;1999.90;;;999.90;;
14015;SDS011;7083;48.854;9.158;2022-12-10T11:47:48;1999.90;;;999.90;;
14015;SDS011;7083;48.854;9.158;2022-12-10T11:50:33;1999.90;;;999.90;;
14015;SDS011;7083;48.854;9.158;2022-12-10T11:53:14;1999.90;;;999.90;;
14015;SDS011;7083;48.854;9.158;2022-12-10T11:55:55;1999.90;;;999.90;;
14015;SDS011;7083;48.854;9.158;2022-12-10T11:58:35;1999.90;;;999.90;;
14015;SDS011;7083;48.854;9.158;2022-12-10T12:01:15;1999.90;;;999.90;;
14015;SDS011;7083;48.854;9.158;2022-12-10T12:03:54;1999.90;;;999.90;;
14015;SDS011;7083;48.854;9.158;2022-12-10T12:06:37;1999.90;;;999.90;;
14015;SDS011;7083;48.854;9.158;2022-12-10T12:09:17;1999.90;;;999.90;;
14015;SDS011;7083;48.854;9.158;2022-12-10T12:11:55;1999.90;;;999.90;;
14015;SDS011;7083;48.854;9.158;2022-12-10T12:14:31;1999.90;;;999.90;;
14015;SDS011;7083;48.854;9.158;2022-12-10T12:17:04;1999.90;;;999.90;;
14015;SDS011;7083;48.854;9.158;2022-12-10T12:19:37;1999.90;;;999.90;;
14015;SDS011;7083;48.854;9.158;2022-12-10T12:22:07;1999.90;;;999.90;;
14015;SDS011;7083;48.854;9.158;2022-12-10T12:24:40;1999.90;;;999.90;;
14015;SDS011;7083;48.854;9.158;2022-12-10T12:27:12;1999.90;;;999.90;;
14015;SDS011;7083;48.854;9.158;2022-12-10T12:29:45;1999.90;;;999.90;;
14015;SDS011;7083;48.854;9.158;2022-12-10T12:32:19;1999.90;;;999.90;;
14015;SDS011;7083;48.854;9.158;2022-12-10T12:34:52;1999.90;;;999.90;;
14015;SDS011;7083;48.854;9.158;2022-12-10T12:37:24;1999.90;;;999.90;;
14015;SDS011;7083;48.854;9.158;2022-12-10T12:40:00;1999.90;;;999.90;;
14015;SDS011;7083;48.854;9.158;2022-12-10T12:42:35;1999.90;;;999.90;;
14015;SDS011;7083;48.854;9.158;2022-12-10T12:45:08;1999.90;;;999.90;;
14015;SDS011;7083;48.854;9.158;2022-12-10T12:47:41;1999.90;;;999.90;;
14015;SDS011;7083;48.854;9.158;2022-12-10T12:50:19;1999.90;;;999.90;;
14015;SDS011;7083;48.854;9.158;2022-12-10T12:52:53;1999.90;;;999.90;;
14015;SDS011;7083;48.854;9.158;2022-12-10T12:55:24;1999.90;;;999.90;;
14015;SDS011;7083;48.854;9.158;2022-12-10T12:58:15;1999.90;;;999.90;;
14015;SDS011;7083;48.854;9.158;2022-12-10T13:00:54;1999.90;;;999.90;;
14015;SDS011;7083;48.854;9.158;2022-12-10T13:03:29;1999.90;;;999.90;;
14015;SDS011;7083;48.854;9.158;2022-12-10T13:06:14;1999.90;;;999.90;;
14015;SDS011;7083;48.854;9.158;2022-12-10T13:08:48;1999.90;;;999.90;;
14015;SDS011;7083;48.854;9.158;2022-12-10T13:11:17;1999.90;;;999.90;;
14015;SDS011;7083;48.854;9.158;2022-12-10T13:14:13;1999.90;;;999.90;;
14015;SDS011;7083;48.854;9.158;2022-12-10T13:16:48;1999.90;;;999.90;;
14015;SDS011;7083;48.854;9.158;2022-12-10T13:19:26;1999.90;;;999.90;;
14015;SDS011;7083;48.854;9.158;2022-12-10T13:21:59;1999.90;;;999.90;;
14015;SDS011;7083;48.854;9.158;2022-12-10T13:24:45;1999.90;;;999.90;;
14015;SDS011;7083;48.854;9.158;2022-12-10T13:27:16;1999.90;;;999.90;;
14015;SDS011;7083;48.854;9.158;2022-12-10T13:29:46;1999.90;;;999.90;;
14015;SDS011;7083;48.854;9.158;2022-12-10T13:32:21;1999.90;;;999.90;;
14015;SDS011;7083;48.854;9.158;2022-12-10T13:37:55;1999.90;;;999.90;;
14015;SDS011;7083;48.854;9.158;2022-12-10T13:40:36;1999.90;;;999.90;;
14015;SDS011;7083;48.854;9.158;2022-12-10T13:43:24;1999.90;;;999.90;;
14015;SDS011;7083;48.854;9.158;2022-12-10T13:46:21;1999.90;;;999.90;;
14015;SDS011;7083;48.854;9.158;2022-12-10T13:48:56;1999.90;;;999.90;;
14015;SDS011;7083;48.854;9.158;2022-12-10T13:51:27;1999.90;;;999.90;;
14015;SDS011;7083;48.854;9.158;2022-12-10T13:54:09;1999.90;;;999.90;;
14015;SDS011;7083;48.854;9.158;2022-12-10T13:56:47;1999.90;;;999.90;;
14015;SDS011;7083;48.854;9.158;2022-12-10T13:59:27;1999.90;;;999.90;;
14015;SDS011;7083;48.854;9.158;2022-12-10T14:02:00;1999.90;;;999.90;;
14015;SDS011;7083;48.854;9.158;2022-12-10T14:07:40;1999.90;;;999.90;;
14015;SDS011;7083;48.854;9.158;2022-12-10T14:10:13;1999.90;;;999.90;;
14015;SDS011;7083;48.854;9.158;2022-12-10T14:12:41;1999.90;;;999.90;;
14015;SDS011;7083;48.854;9.158;2022-12-10T14:15:15;1999.90;;;999.90;;
14015;SDS011;7083;48.854;9.158;2022-12-10T14:17:46;1999.90;;;999.90;;
14015;SDS011;7083;48.854;9.158;2022-12-10T14:20:16;1999.90;;;999.90;;
14015;SDS011;7083;48.854;9.158;2022-12-10T14:22:46;1999.90;;;999.90;;
14015;SDS011;7083;48.854;9.158;2022-12-10T14:25:15;1999.90;;;999.90;;
14015;SDS011;7083;48.854;9.158;2022-12-10T14:27:44;1999.90;;;999.90;;